VOBG/BLR METAR and TAF weather

Enter ICAO airport designator
Station Type Date Time Source
VOBG METAR 2021/07/29 08:30 UTC NOAA

VOBG 290830Z 26013KT 9999 SCT012 SCT018 28/20 Q1012 NOSIG


Station Type Date Time Source
VOBG Decoded METAR 2021/07/29 08:30 UTC NOAA

Bangalore / Hindustan, India (VOBG) 12-57N 077-40E
Jul 29, 2021 - 04:30 AM EDT / 2021.07.29 0830 UTC
Wind: from the W (260 degrees) at 15 MPH (13 KT):0
Visibility: greater than 7 mile(s):0
Sky conditions: partly cloudy
Temperature: 82 F (28 C)
Dew Point: 68 F (20 C)
Relative Humidity: 61%
Pressure (altimeter): 29.88 in. Hg (1012 hPa)
ob: VOBG 290830Z 26013KT 9999 SCT012 SCT018 28/20 Q1012 NOSIG
cycle: 8

Station Type Date Time Source
VOBG TAF 2021/05/01 09:00 UTC NOAA

TAF VOBG 010800Z 0109/0118 09010KT 6000 SCT015
TEMPO 0112/0118 5000 TSRA RA SCT015 SCT020 FEW025CB BKN080

Example: see airport list